sensor_id;sensor_type;location;lat;lon;timestamp;pressure;altitude;pressure_sealevel;temperature;humidity
59600;BME280;61855;55.030;73.326;2022-10-16T00:01:24;100657.88;;;9.67;72.39
59600;BME280;61855;55.030;73.326;2022-10-16T00:03:57;100650.97;;;9.64;72.05
59600;BME280;61855;55.030;73.326;2022-10-16T00:06:25;100653.28;;;9.59;72.19
59600;BME280;61855;55.030;73.326;2022-10-16T00:08:51;100653.59;;;9.56;72.33
59600;BME280;61855;55.030;73.326;2022-10-16T00:11:27;100652.41;;;9.50;72.60
59600;BME280;61855;55.030;73.326;2022-10-16T00:13:59;100646.13;;;9.42;72.45
59600;BME280;61855;55.030;73.326;2022-10-16T00:16:27;100645.84;;;9.27;72.96
59600;BME280;61855;55.030;73.326;2022-10-16T00:18:53;100649.97;;;9.14;73.39
59600;BME280;61855;55.030;73.326;2022-10-16T00:21:22;100638.91;;;8.99;73.88
59600;BME280;61855;55.030;73.326;2022-10-16T00:23:57;100645.16;;;8.82;74.25
59600;BME280;61855;55.030;73.326;2022-10-16T00:26:29;100640.78;;;8.63;75.10
59600;BME280;61855;55.030;73.326;2022-10-16T00:28:55;100638.41;;;8.43;75.83
59600;BME280;61855;55.030;73.326;2022-10-16T00:31:23;100651.16;;;8.41;76.37
59600;BME280;61855;55.030;73.326;2022-10-16T00:33:50;100651.06;;;8.33;77.04
59600;BME280;61855;55.030;73.326;2022-10-16T00:36:18;100644.56;;;8.26;77.32
59600;BME280;61855;55.030;73.326;2022-10-16T00:38:45;100647.19;;;8.17;77.60
59600;BME280;61855;55.030;73.326;2022-10-16T00:41:14;100640.56;;;8.12;78.08
59600;BME280;61855;55.030;73.326;2022-10-16T00:43:50;100645.56;;;8.07;78.31
59600;BME280;61855;55.030;73.326;2022-10-16T00:46:23;100622.41;;;7.96;78.68
59600;BME280;61855;55.030;73.326;2022-10-16T00:48:57;100634.41;;;8.02;78.32
59600;BME280;61855;55.030;73.326;2022-10-16T00:51:32;100638.22;;;7.99;78.52
59600;BME280;61855;55.030;73.326;2022-10-16T00:54:26;100633.31;;;7.95;78.33
59600;BME280;61855;55.030;73.326;2022-10-16T00:56:54;100635.47;;;7.91;78.62
59600;BME280;61855;55.030;73.326;2022-10-16T00:59:26;100620.53;;;7.79;78.92
59600;BME280;61855;55.030;73.326;2022-10-16T01:01:53;100641.00;;;7.80;78.82
59600;BME280;61855;55.030;73.326;2022-10-16T01:04:21;100633.31;;;7.68;78.96
59600;BME280;61855;55.030;73.326;2022-10-16T01:12:54;100647.97;;;7.46;79.52
59600;BME280;61855;55.030;73.326;2022-10-16T01:15:27;100651.38;;;7.38;79.91
59600;BME280;61855;55.030;73.326;2022-10-16T01:21:04;100642.50;;;7.28;79.68
59600;BME280;61855;55.030;73.326;2022-10-16T01:27:01;100646.75;;;7.21;79.89
59600;BME280;61855;55.030;73.326;2022-10-16T01:31:41;100632.47;;;7.21;79.59
59600;BME280;61855;55.030;73.326;2022-10-16T01:34:15;100641.94;;;7.34;79.38
59600;BME280;61855;55.030;73.326;2022-10-16T01:36:49;100642.88;;;7.43;79.02
59600;BME280;61855;55.030;73.326;2022-10-16T01:39:20;100626.59;;;7.44;78.81
59600;BME280;61855;55.030;73.326;2022-10-16T01:41:54;100638.00;;;7.56;78.97
59600;BME280;61855;55.030;73.326;2022-10-16T01:44:26;100627.66;;;7.61;78.72
59600;BME280;61855;55.030;73.326;2022-10-16T01:46:55;100629.78;;;7.67;78.26
59600;BME280;61855;55.030;73.326;2022-10-16T01:49:23;100624.94;;;7.71;78.01
59600;BME280;61855;55.030;73.326;2022-10-16T01:51:54;100631.28;;;7.79;77.53
59600;BME280;61855;55.030;73.326;2022-10-16T01:54:23;100635.34;;;7.83;77.39
59600;BME280;61855;55.030;73.326;2022-10-16T01:56:51;100626.84;;;7.88;76.97
59600;BME280;61855;55.030;73.326;2022-10-16T01:59:21;100627.09;;;7.94;76.79
59600;BME280;61855;55.030;73.326;2022-10-16T02:01:54;100626.63;;;7.99;76.39
59600;BME280;61855;55.030;73.326;2022-10-16T02:04:33;100616.59;;;8.01;76.51
59600;BME280;61855;55.030;73.326;2022-10-16T02:07:00;100614.03;;;7.99;76.23
59600;BME280;61855;55.030;73.326;2022-10-16T02:09:26;100622.22;;;8.07;76.12
59600;BME280;61855;55.030;73.326;2022-10-16T02:11:56;100617.53;;;8.09;75.86
59600;BME280;61855;55.030;73.326;2022-10-16T02:14:26;100622.44;;;8.14;75.47
59600;BME280;61855;55.030;73.326;2022-10-16T02:16:52;100621.31;;;8.16;75.35
59600;BME280;61855;55.030;73.326;2022-10-16T02:19:20;100623.53;;;8.21;75.14
59600;BME280;61855;55.030;73.326;2022-10-16T02:21:59;100614.31;;;8.24;74.71
59600;BME280;61855;55.030;73.326;2022-10-16T02:24:44;100614.75;;;8.29;74.30
59600;BME280;61855;55.030;73.326;2022-10-16T02:30:06;100620.56;;;8.42;73.68
59600;BME280;61855;55.030;73.326;2022-10-16T02:32:37;100625.06;;;8.51;73.34
59600;BME280;61855;55.030;73.326;2022-10-16T02:35:04;100615.03;;;8.61;72.49
59600;BME280;61855;55.030;73.326;2022-10-16T02:37:37;100623.19;;;8.69;72.25
59600;BME280;61855;55.030;73.326;2022-10-16T02:40:10;100615.81;;;8.71;71.54
59600;BME280;61855;55.030;73.326;2022-10-16T02:42:39;100624.19;;;8.85;70.84
59600;BME280;61855;55.030;73.326;2022-10-16T02:45:06;100624.38;;;8.92;70.13
59600;BME280;61855;55.030;73.326;2022-10-16T02:47:32;100622.63;;;9.01;70.42
59600;BME280;61855;55.030;73.326;2022-10-16T02:49:59;100611.53;;;9.04;69.76
59600;BME280;61855;55.030;73.326;2022-10-16T02:52:25;100604.47;;;9.03;69.27
59600;BME280;61855;55.030;73.326;2022-10-16T02:54:51;100620.72;;;9.19;69.23
59600;BME280;61855;55.030;73.326;2022-10-16T02:57:18;100618.09;;;9.27;69.01
59600;BME280;61855;55.030;73.326;2022-10-16T02:59:45;100625.34;;;9.34;68.84
59600;BME280;61855;55.030;73.326;2022-10-16T03:02:11;100626.41;;;9.41;68.30
59600;BME280;61855;55.030;73.326;2022-10-16T03:04:37;100617.03;;;9.45;68.31
59600;BME280;61855;55.030;73.326;2022-10-16T03:07:03;100622.97;;;9.57;67.81
59600;BME280;61855;55.030;73.326;2022-10-16T03:09:30;100613.41;;;9.63;67.60
59600;BME280;61855;55.030;73.326;2022-10-16T03:11:56;100619.69;;;9.71;67.34
59600;BME280;61855;55.030;73.326;2022-10-16T03:14:22;100608.41;;;9.76;66.91
59600;BME280;61855;55.030;73.326;2022-10-16T03:16:49;100615.84;;;9.82;66.61
59600;BME280;61855;55.030;73.326;2022-10-16T03:19:16;100617.72;;;9.89;66.50
59600;BME280;61855;55.030;73.326;2022-10-16T03:21:44;100607.47;;;9.93;66.92
59600;BME280;61855;55.030;73.326;2022-10-16T03:24:11;100613.22;;;9.98;66.65
59600;BME280;61855;55.030;73.326;2022-10-16T03:26:39;100610.88;;;10.03;66.48
59600;BME280;61855;55.030;73.326;2022-10-16T03:29:05;100600.44;;;10.08;66.72
59600;BME280;61855;55.030;73.326;2022-10-16T03:31:32;100606.41;;;10.19;66.35
59600;BME280;61855;55.030;73.326;2022-10-16T03:33:58;100603.91;;;10.26;65.79
59600;BME280;61855;55.030;73.326;2022-10-16T03:36:25;100593.78;;;10.28;65.50
59600;BME280;61855;55.030;73.326;2022-10-16T03:38:51;100595.81;;;10.42;65.25
59600;BME280;61855;55.030;73.326;2022-10-16T03:41:17;100593.16;;;10.50;65.03
59600;BME280;61855;55.030;73.326;2022-10-16T03:43:43;100596.50;;;10.60;65.09
59600;BME280;61855;55.030;73.326;2022-10-16T03:46:09;100599.91;;;10.70;65.19
59600;BME280;61855;55.030;73.326;2022-10-16T03:48:35;100599.22;;;10.84;64.97
59600;BME280;61855;55.030;73.326;2022-10-16T03:51:01;100587.75;;;10.91;64.47
59600;BME280;61855;55.030;73.326;2022-10-16T03:53:27;100589.09;;;11.03;64.08
59600;BME280;61855;55.030;73.326;2022-10-16T03:56:04;100599.88;;;11.11;63.79
59600;BME280;61855;55.030;73.326;2022-10-16T03:58:30;100586.03;;;11.14;63.10
59600;BME280;61855;55.030;73.326;2022-10-16T04:00:56;100598.16;;;11.18;62.55
59600;BME280;61855;55.030;73.326;2022-10-16T04:03:22;100589.91;;;11.19;61.73
59600;BME280;61855;55.030;73.326;2022-10-16T04:05:49;100598.69;;;11.21;61.43
59600;BME280;61855;55.030;73.326;2022-10-16T04:08:16;100599.69;;;11.28;60.59
59600;BME280;61855;55.030;73.326;2022-10-16T04:10:43;100586.19;;;11.28;59.62
59600;BME280;61855;55.030;73.326;2022-10-16T04:13:09;100588.50;;;11.47;58.81
59600;BME280;61855;55.030;73.326;2022-10-16T04:15:35;100578.16;;;11.51;59.00
59600;BME280;61855;55.030;73.326;2022-10-16T04:18:03;100595.34;;;11.66;59.06
59600;BME280;61855;55.030;73.326;2022-10-16T04:20:30;100591.31;;;11.62;58.91
59600;BME280;61855;55.030;73.326;2022-10-16T04:22:56;100586.59;;;11.56;58.68
59600;BME280;61855;55.030;73.326;2022-10-16T04:25:22;100587.47;;;11.48;58.30
59600;BME280;61855;55.030;73.326;2022-10-16T04:27:48;100577.16;;;11.44;58.34
59600;BME280;61855;55.030;73.326;2022-10-16T04:30:16;100581.22;;;11.48;57.88
59600;BME280;61855;55.030;73.326;2022-10-16T04:32:42;100589.97;;;11.58;57.03
59600;BME280;61855;55.030;73.326;2022-10-16T04:35:19;100581.50;;;11.61;56.28
59600;BME280;61855;55.030;73.326;2022-10-16T04:37:46;100588.59;;;11.78;55.69
59600;BME280;61855;55.030;73.326;2022-10-16T04:40:13;100587.50;;;11.95;54.66
59600;BME280;61855;55.030;73.326;2022-10-16T04:42:47;100582.16;;;12.10;53.62
59600;BME280;61855;55.030;73.326;2022-10-16T04:45:13;100587.66;;;12.24;53.04
59600;BME280;61855;55.030;73.326;2022-10-16T04:47:39;100569.50;;;12.33;52.30
59600;BME280;61855;55.030;73.326;2022-10-16T04:50:11;100571.69;;;12.38;52.33
59600;BME280;61855;55.030;73.326;2022-10-16T04:52:37;100580.69;;;12.53;51.73
59600;BME280;61855;55.030;73.326;2022-10-16T04:55:03;100577.56;;;12.64;51.27
59600;BME280;61855;55.030;73.326;2022-10-16T04:57:30;100580.69;;;12.75;51.37
59600;BME280;61855;55.030;73.326;2022-10-16T05:00:05;100575.69;;;12.87;51.15
59600;BME280;61855;55.030;73.326;2022-10-16T05:02:31;100571.22;;;12.94;50.74
59600;BME280;61855;55.030;73.326;2022-10-16T05:04:57;100574.63;;;13.11;50.70
59600;BME280;61855;55.030;73.326;2022-10-16T05:07:25;100577.19;;;13.27;50.23
59600;BME280;61855;55.030;73.326;2022-10-16T05:09:51;100565.91;;;13.38;49.88
59600;BME280;61855;55.030;73.326;2022-10-16T05:12:18;100576.56;;;13.54;49.69
59600;BME280;61855;55.030;73.326;2022-10-16T05:14:44;100581.50;;;13.65;48.93
59600;BME280;61855;55.030;73.326;2022-10-16T05:17:20;100582.53;;;13.64;49.04
59600;BME280;61855;55.030;73.326;2022-10-16T05:19:46;100558.94;;;13.79;48.42
59600;BME280;61855;55.030;73.326;2022-10-16T05:22:12;100558.50;;;13.76;48.33
59600;BME280;61855;55.030;73.326;2022-10-16T05:24:39;100555.44;;;13.64;48.23
59600;BME280;61855;55.030;73.326;2022-10-16T05:27:05;100585.81;;;13.60;48.27
59600;BME280;61855;55.030;73.326;2022-10-16T05:29:32;100551.94;;;13.55;48.61
59600;BME280;61855;55.030;73.326;2022-10-16T05:31:58;100560.09;;;13.55;48.52
59600;BME280;61855;55.030;73.326;2022-10-16T05:34:24;100556.81;;;13.60;48.32
59600;BME280;61855;55.030;73.326;2022-10-16T05:36:50;100570.38;;;13.60;48.19
59600;BME280;61855;55.030;73.326;2022-10-16T05:39:17;100556.06;;;13.51;48.36
59600;BME280;61855;55.030;73.326;2022-10-16T05:41:53;100582.91;;;13.61;48.73
59600;BME280;61855;55.030;73.326;2022-10-16T05:44:23;100581.69;;;13.64;48.88
59600;BME280;61855;55.030;73.326;2022-10-16T05:46:51;100563.16;;;13.67;48.74
59600;BME280;61855;55.030;73.326;2022-10-16T05:49:22;100580.94;;;13.70;48.29
59600;BME280;61855;55.030;73.326;2022-10-16T05:51:48;100587.28;;;13.77;47.67
59600;BME280;61855;55.030;73.326;2022-10-16T05:54:19;100577.28;;;13.77;47.90
59600;BME280;61855;55.030;73.326;2022-10-16T05:56:45;100584.78;;;13.75;47.56
59600;BME280;61855;55.030;73.326;2022-10-16T05:59:11;100582.06;;;13.75;47.84
59600;BME280;61855;55.030;73.326;2022-10-16T06:01:38;100573.56;;;13.78;48.04
59600;BME280;61855;55.030;73.326;2022-10-16T06:04:04;100565.50;;;13.85;47.39
59600;BME280;61855;55.030;73.326;2022-10-16T06:06:30;100585.78;;;13.89;47.36
59600;BME280;61855;55.030;73.326;2022-10-16T06:08:57;100578.22;;;13.84;46.77
59600;BME280;61855;55.030;73.326;2022-10-16T06:11:26;100591.78;;;13.84;45.83
59600;BME280;61855;55.030;73.326;2022-10-16T06:13:54;100561.50;;;13.81;45.79
59600;BME280;61855;55.030;73.326;2022-10-16T06:16:23;100563.53;;;13.79;45.57
59600;BME280;61855;55.030;73.326;2022-10-16T06:18:53;100568.22;;;13.70;45.82
59600;BME280;61855;55.030;73.326;2022-10-16T06:21:24;100560.56;;;13.59;45.85
59600;BME280;61855;55.030;73.326;2022-10-16T06:23:52;100551.38;;;13.45;46.12
59600;BME280;61855;55.030;73.326;2022-10-16T06:26:21;100546.72;;;13.39;46.26
59600;BME280;61855;55.030;73.326;2022-10-16T06:28:48;100557.66;;;13.46;46.42
59600;BME280;61855;55.030;73.326;2022-10-16T06:31:16;100554.84;;;13.39;47.10
59600;BME280;61855;55.030;73.326;2022-10-16T06:33:50;100546.16;;;13.44;47.01
59600;BME280;61855;55.030;73.326;2022-10-16T06:36:17;100552.34;;;13.52;47.08
59600;BME280;61855;55.030;73.326;2022-10-16T06:38:44;100555.44;;;13.64;47.41
59600;BME280;61855;55.030;73.326;2022-10-16T06:41:13;100555.94;;;13.74;47.21
59600;BME280;61855;55.030;73.326;2022-10-16T06:43:39;100552.03;;;13.77;47.41
59600;BME280;61855;55.030;73.326;2022-10-16T06:46:20;100541.81;;;13.79;48.20
59600;BME280;61855;55.030;73.326;2022-10-16T06:48:46;100533.81;;;13.71;48.30
59600;BME280;61855;55.030;73.326;2022-10-16T06:51:18;100531.09;;;13.71;48.28
59600;BME280;61855;55.030;73.326;2022-10-16T06:53:50;100538.66;;;13.75;48.58
59600;BME280;61855;55.030;73.326;2022-10-16T06:56:20;100532.75;;;13.72;49.14
59600;BME280;61855;55.030;73.326;2022-10-16T06:58:47;100524.09;;;13.76;48.61
59600;BME280;61855;55.030;73.326;2022-10-16T07:01:20;100532.09;;;13.84;48.80
59600;BME280;61855;55.030;73.326;2022-10-16T07:03:47;100537.88;;;13.96;48.95
59600;BME280;61855;55.030;73.326;2022-10-16T07:06:25;100535.13;;;14.10;48.97
59600;BME280;61855;55.030;73.326;2022-10-16T07:08:53;100525.16;;;14.17;49.10
59600;BME280;61855;55.030;73.326;2022-10-16T07:11:21;100518.31;;;14.21;48.98
59600;BME280;61855;55.030;73.326;2022-10-16T07:13:48;100521.28;;;14.26;48.82
59600;BME280;61855;55.030;73.326;2022-10-16T07:16:22;100528.16;;;14.22;49.13
59600;BME280;61855;55.030;73.326;2022-10-16T07:18:49;100525.16;;;14.17;49.50
59600;BME280;61855;55.030;73.326;2022-10-16T07:21:19;100522.19;;;14.12;49.69
59600;BME280;61855;55.030;73.326;2022-10-16T07:23:52;100528.84;;;14.10;50.73
59600;BME280;61855;55.030;73.326;2022-10-16T07:26:32;100519.22;;;14.07;50.71
59600;BME280;61855;55.030;73.326;2022-10-16T07:28:58;100515.28;;;14.10;51.02
59600;BME280;61855;55.030;73.326;2022-10-16T07:31:25;100518.59;;;14.26;49.77
59600;BME280;61855;55.030;73.326;2022-10-16T07:33:51;100523.88;;;14.49;49.67
59600;BME280;61855;55.030;73.326;2022-10-16T07:36:22;100508.41;;;14.71;49.42
59600;BME280;61855;55.030;73.326;2022-10-16T07:38:48;100505.19;;;14.88;48.69
59600;BME280;61855;55.030;73.326;2022-10-16T07:41:17;100505.88;;;14.97;48.71
59600;BME280;61855;55.030;73.326;2022-10-16T07:43:48;100489.16;;;15.00;48.80
59600;BME280;61855;55.030;73.326;2022-10-16T07:46:15;100483.38;;;15.10;48.38
59600;BME280;61855;55.030;73.326;2022-10-16T07:48:42;100487.56;;;15.12;48.59
59600;BME280;61855;55.030;73.326;2022-10-16T07:51:12;100476.53;;;15.14;48.05
59600;BME280;61855;55.030;73.326;2022-10-16T07:53:38;100477.16;;;15.16;48.72
59600;BME280;61855;55.030;73.326;2022-10-16T07:56:06;100472.56;;;15.16;48.65
59600;BME280;61855;55.030;73.326;2022-10-16T07:58:34;100474.63;;;15.14;49.19
59600;BME280;61855;55.030;73.326;2022-10-16T08:01:08;100473.19;;;15.18;48.90
59600;BME280;61855;55.030;73.326;2022-10-16T08:03:34;100465.53;;;15.28;48.80
59600;BME280;61855;55.030;73.326;2022-10-16T08:06:01;100460.50;;;15.32;48.32
59600;BME280;61855;55.030;73.326;2022-10-16T08:08:27;100459.66;;;15.31;48.28
59600;BME280;61855;55.030;73.326;2022-10-16T08:10:54;100468.34;;;15.48;48.26
59600;BME280;61855;55.030;73.326;2022-10-16T08:13:20;100474.91;;;15.60;47.84
59600;BME280;61855;55.030;73.326;2022-10-16T08:15:51;100476.22;;;15.71;47.81
59600;BME280;61855;55.030;73.326;2022-10-16T08:18:19;100476.81;;;15.66;47.24
59600;BME280;61855;55.030;73.326;2022-10-16T08:20:45;100487.03;;;15.57;47.72
59600;BME280;61855;55.030;73.326;2022-10-16T08:23:12;100472.38;;;15.52;48.47
59600;BME280;61855;55.030;73.326;2022-10-16T08:25:40;100474.84;;;15.47;48.22
59600;BME280;61855;55.030;73.326;2022-10-16T08:28:10;100472.13;;;15.47;48.44
59600;BME280;61855;55.030;73.326;2022-10-16T08:30:36;100469.41;;;15.47;48.34
59600;BME280;61855;55.030;73.326;2022-10-16T08:33:03;100466.72;;;15.53;48.10
59600;BME280;61855;55.030;73.326;2022-10-16T08:35:29;100473.63;;;15.56;48.23
59600;BME280;61855;55.030;73.326;2022-10-16T08:37:55;100470.50;;;15.59;48.37
59600;BME280;61855;55.030;73.326;2022-10-16T08:40:27;100464.41;;;15.50;48.58
59600;BME280;61855;55.030;73.326;2022-10-16T08:45:43;100467.50;;;15.07;50.24
59600;BME280;61855;55.030;73.326;2022-10-16T08:48:23;100461.06;;;14.86;50.69
59600;BME280;61855;55.030;73.326;2022-10-16T08:50:54;100462.44;;;14.48;51.70
59600;BME280;61855;55.030;73.326;2022-10-16T08:53:52;100471.41;;;14.27;51.94
59600;BME280;61855;55.030;73.326;2022-10-16T08:56:18;100459.41;;;14.15;52.48
59600;BME280;61855;55.030;73.326;2022-10-16T08:58:46;100462.63;;;14.04;52.71
59600;BME280;61855;55.030;73.326;2022-10-16T09:01:15;100463.31;;;13.92;53.37
59600;BME280;61855;55.030;73.326;2022-10-16T09:09:20;100460.22;;;13.74;53.83
59600;BME280;61855;55.030;73.326;2022-10-16T09:17:30;100463.00;;;13.80;54.11
59600;BME280;61855;55.030;73.326;2022-10-16T09:23:08;100463.69;;;13.89;53.38
59600;BME280;61855;55.030;73.326;2022-10-16T09:25:39;100450.97;;;13.89;52.86
59600;BME280;61855;55.030;73.326;2022-10-16T09:28:08;100459.97;;;13.90;53.11
59600;BME280;61855;55.030;73.326;2022-10-16T09:30:37;100452.16;;;13.80;53.58
59600;BME280;61855;55.030;73.326;2022-10-16T09:33:04;100443.09;;;13.73;53.67
59600;BME280;61855;55.030;73.326;2022-10-16T09:35:46;100457.97;;;13.63;53.90
59600;BME280;61855;55.030;73.326;2022-10-16T09:40:51;100447.22;;;13.33;54.78
59600;BME280;61855;55.030;73.326;2022-10-16T09:46:32;100451.97;;;13.02;56.57
59600;BME280;61855;55.030;73.326;2022-10-16T09:49:26;100452.41;;;12.91;56.59
59600;BME280;61855;55.030;73.326;2022-10-16T09:52:12;100445.31;;;12.75;57.69
59600;BME280;61855;55.030;73.326;2022-10-16T09:54:48;100449.69;;;12.62;58.21
59600;BME280;61855;55.030;73.326;2022-10-16T09:57:14;100448.19;;;12.59;58.17
59600;BME280;61855;55.030;73.326;2022-10-16T09:59:48;100469.63;;;12.61;58.59
59600;BME280;61855;55.030;73.326;2022-10-16T10:02:18;100443.41;;;12.61;58.33
59600;BME280;61855;55.030;73.326;2022-10-16T10:04:52;100447.00;;;12.76;58.52
59600;BME280;61855;55.030;73.326;2022-10-16T10:07:32;100436.44;;;12.96;58.05
59600;BME280;61855;55.030;73.326;2022-10-16T10:10:04;100448.78;;;13.28;57.87
59600;BME280;61855;55.030;73.326;2022-10-16T10:12:32;100453.44;;;13.34;59.63
59600;BME280;61855;55.030;73.326;2022-10-16T10:15:11;100434.31;;;13.06;59.56
59600;BME280;61855;55.030;73.326;2022-10-16T10:17:51;100450.16;;;12.80;60.38
59600;BME280;61855;55.030;73.326;2022-10-16T10:22:55;100447.78;;;12.48;60.70
59600;BME280;61855;55.030;73.326;2022-10-16T10:28:46;100457.94;;;12.46;61.28
59600;BME280;61855;55.030;73.326;2022-10-16T10:31:33;100450.50;;;12.48;61.09
59600;BME280;61855;55.030;73.326;2022-10-16T10:34:26;100450.31;;;12.49;61.27
59600;BME280;61855;55.030;73.326;2022-10-16T10:40:14;100448.16;;;12.45;61.69
59600;BME280;61855;55.030;73.326;2022-10-16T10:42:42;100447.91;;;12.32;61.82
59600;BME280;61855;55.030;73.326;2022-10-16T10:45:44;100439.50;;;12.27;61.77
59600;BME280;61855;55.030;73.326;2022-10-16T10:59:24;100427.97;;;11.87;61.82
59600;BME280;61855;55.030;73.326;2022-10-16T11:02:05;100430.50;;;11.89;62.66
59600;BME280;61855;55.030;73.326;2022-10-16T11:07:27;100427.97;;;11.87;63.55
59600;BME280;61855;55.030;73.326;2022-10-16T11:09:57;100429.19;;;11.85;63.84
59600;BME280;61855;55.030;73.326;2022-10-16T11:12:33;100420.75;;;11.80;64.89
59600;BME280;61855;55.030;73.326;2022-10-16T11:15:25;100421.97;;;11.77;64.98
59600;BME280;61855;55.030;73.326;2022-10-16T11:20:39;100416.44;;;11.71;64.32
59600;BME280;61855;55.030;73.326;2022-10-16T11:25:49;100420.72;;;11.57;66.10
59600;BME280;61855;55.030;73.326;2022-10-16T11:28:49;100391.44;;;11.38;66.55
59600;BME280;61855;55.030;73.326;2022-10-16T11:31:48;100417.41;;;11.47;66.76
59600;BME280;61855;55.030;73.326;2022-10-16T11:34:32;100413.72;;;11.40;66.71
59600;BME280;61855;55.030;73.326;2022-10-16T11:37:10;100404.47;;;11.34;66.68
59600;BME280;61855;55.030;73.326;2022-10-16T11:39:39;100406.69;;;11.31;66.95
59600;BME280;61855;55.030;73.326;2022-10-16T11:42:18;100408.88;;;11.27;67.50
59600;BME280;61855;55.030;73.326;2022-10-16T11:47:45;100415.16;;;11.20;67.60
59600;BME280;61855;55.030;73.326;2022-10-16T11:55:54;100389.22;;;11.11;68.26
59600;BME280;61855;55.030;73.326;2022-10-16T11:58:27;100396.13;;;11.13;68.52
59600;BME280;61855;55.030;73.326;2022-10-16T12:01:10;100393.28;;;11.15;68.43
59600;BME280;61855;55.030;73.326;2022-10-16T12:03:55;100393.44;;;11.13;68.21
59600;BME280;61855;55.030;73.326;2022-10-16T12:09:02;100388.88;;;11.14;68.05
59600;BME280;61855;55.030;73.326;2022-10-16T12:19:29;100382.84;;;11.04;68.10
59600;BME280;61855;55.030;73.326;2022-10-16T12:22:03;100373.41;;;11.00;68.13
59600;BME280;61855;55.030;73.326;2022-10-16T12:24:41;100372.22;;;11.02;68.35
59600;BME280;61855;55.030;73.326;2022-10-16T12:27:32;100361.75;;;10.99;68.30
59600;BME280;61855;55.030;73.326;2022-10-16T12:30:00;100364.28;;;11.01;68.13
59600;BME280;61855;55.030;73.326;2022-10-16T12:32:37;100363.81;;;10.97;67.99
59600;BME280;61855;55.030;73.326;2022-10-16T12:35:17;100371.72;;;10.99;67.62
59600;BME280;61855;55.030;73.326;2022-10-16T12:37:44;100372.03;;;11.04;67.52
59600;BME280;61855;55.030;73.326;2022-10-16T12:40:15;100372.03;;;11.04;67.68
59600;BME280;61855;55.030;73.326;2022-10-16T12:42:42;100367.81;;;11.01;67.44
59600;BME280;61855;55.030;73.326;2022-10-16T12:45:29;100373.59;;;10.98;67.71
59600;BME280;61855;55.030;73.326;2022-10-16T12:48:20;100374.47;;;10.91;67.76
59600;BME280;61855;55.030;73.326;2022-10-16T12:50:48;100371.44;;;10.85;68.11
59600;BME280;61855;55.030;73.326;2022-10-16T12:53:23;100372.09;;;10.87;67.98
59600;BME280;61855;55.030;73.326;2022-10-16T12:58:55;100375.13;;;10.93;67.94
59600;BME280;61855;55.030;73.326;2022-10-16T13:01:41;100376.97;;;10.92;68.64
59600;BME280;61855;55.030;73.326;2022-10-16T13:14:54;100382.38;;;10.92;68.67
59600;BME280;61855;55.030;73.326;2022-10-16T13:23:33;100372.97;;;10.80;68.98
59600;BME280;61855;55.030;73.326;2022-10-16T13:26:27;100373.50;;;10.75;68.78
59600;BME280;61855;55.030;73.326;2022-10-16T13:29:00;100370.47;;;10.70;69.18
59600;BME280;61855;55.030;73.326;2022-10-16T13:31:28;100357.69;;;10.64;68.80
59600;BME280;61855;55.030;73.326;2022-10-16T13:33:57;100372.19;;;10.71;68.85
59600;BME280;61855;55.030;73.326;2022-10-16T13:36:25;100367.44;;;10.73;69.05
59600;BME280;61855;55.030;73.326;2022-10-16T13:41:43;100367.63;;;10.72;69.27
59600;BME280;61855;55.030;73.326;2022-10-16T13:44:16;100359.69;;;10.70;68.94
59600;BME280;61855;55.030;73.326;2022-10-16T13:46:44;100359.03;;;10.68;69.36
59600;BME280;61855;55.030;73.326;2022-10-16T13:49:15;100366.47;;;10.66;69.39
59600;BME280;61855;55.030;73.326;2022-10-16T13:51:54;100355.53;;;10.60;69.74
59600;BME280;61855;55.030;73.326;2022-10-16T13:54:20;100360.44;;;10.48;69.94
59600;BME280;61855;55.030;73.326;2022-10-16T13:56:46;100367.38;;;10.35;70.22
59600;BME280;61855;55.030;73.326;2022-10-16T13:59:46;100361.50;;;10.15;70.36
59600;BME280;61855;55.030;73.326;2022-10-16T14:04:47;100359.31;;;9.94;71.25
59600;BME280;61855;55.030;73.326;2022-10-16T14:07:29;100366.22;;;9.97;71.76
59600;BME280;61855;55.030;73.326;2022-10-16T14:10:46;100362.00;;;9.94;71.51
59600;BME280;61855;55.030;73.326;2022-10-16T14:13:17;100362.84;;;9.95;71.59
59600;BME280;61855;55.030;73.326;2022-10-16T14:15:51;100360.16;;;9.95;71.61
59600;BME280;61855;55.030;73.326;2022-10-16T14:18:23;100359.63;;;9.91;71.98
59600;BME280;61855;55.030;73.326;2022-10-16T14:21:06;100358.47;;;9.86;71.79
59600;BME280;61855;55.030;73.326;2022-10-16T14:23:39;100357.09;;;9.82;72.38
59600;BME280;61855;55.030;73.326;2022-10-16T14:26:17;100347.19;;;9.74;72.49
59600;BME280;61855;55.030;73.326;2022-10-16T14:29:10;100351.56;;;9.67;72.38
59600;BME280;61855;55.030;73.326;2022-10-16T14:32:04;100354.41;;;9.49;72.88
59600;BME280;61855;55.030;73.326;2022-10-16T14:34:35;100347.97;;;9.34;73.27
59600;BME280;61855;55.030;73.326;2022-10-16T14:37:29;100345.75;;;9.14;73.78
59600;BME280;61855;55.030;73.326;2022-10-16T14:39:56;100349.25;;;8.98;74.27
59600;BME280;61855;55.030;73.326;2022-10-16T14:42:24;100337.22;;;8.76;74.67
59600;BME280;61855;55.030;73.326;2022-10-16T14:44:53;100350.31;;;8.71;75.37
59600;BME280;61855;55.030;73.326;2022-10-16T14:47:26;100347.06;;;8.60;75.85
59600;BME280;61855;55.030;73.326;2022-10-16T14:49:54;100347.22;;;8.58;76.11
59600;BME280;61855;55.030;73.326;2022-10-16T14:52:23;100358.16;;;8.57;76.24
59600;BME280;61855;55.030;73.326;2022-10-16T14:54:50;100350.94;;;8.57;76.71
59600;BME280;61855;55.030;73.326;2022-10-16T14:57:22;100349.75;;;8.60;76.87